La Villita, New Mexico
Current Conditions -  °F | °C
As of 10:35 PM on Saturday 25 Oct 2014 (Local Time) from KLAM Reporting Station
Clear Clear  
Wind Chill: 59°   Ceiling: Unl
Heat Index: 59°   Visibility: 10mi
Dew Point: 28°   Wind: 8mph
Humidity: 31%   Direction: 270°W
Pressure: 30.29"   Gusts: NA
Location:  36.1112°N, 106.046°W
Report Text: KLAM 260435Z AUTO 27007KT 10SM CLR 15/M02 A3029 RMK AO2 T01501020
Loading
Personal Weather Stations






























Interactive Weather Map
Tropical Storm Tracking
New forecast layout! Learn more

10-Day Weather Forecast

Advertisements
Track Severe Weather on mobile